sensor_id;sensor_type;location;lat;lon;timestamp;temperature;humidity
6256;DHT22;3161;48.794;9.784;2022-08-14T00:01:41;18.00;91.20
6256;DHT22;3161;48.794;9.784;2022-08-14T00:04:09;17.90;91.80
6256;DHT22;3161;48.794;9.784;2022-08-14T00:06:36;17.90;91.70
6256;DHT22;3161;48.794;9.784;2022-08-14T00:09:04;17.90;91.10
6256;DHT22;3161;48.794;9.784;2022-08-14T00:11:31;17.90;91.00
6256;DHT22;3161;48.794;9.784;2022-08-14T00:14:00;17.90;92.10
6256;DHT22;3161;48.794;9.784;2022-08-14T00:16:28;17.80;91.90
6256;DHT22;3161;48.794;9.784;2022-08-14T00:18:58;17.80;92.20
6256;DHT22;3161;48.794;9.784;2022-08-14T00:21:26;17.80;92.30
6256;DHT22;3161;48.794;9.784;2022-08-14T00:23:53;17.80;92.60
6256;DHT22;3161;48.794;9.784;2022-08-14T00:26:23;17.70;92.40
6256;DHT22;3161;48.794;9.784;2022-08-14T00:28:52;17.70;92.90
6256;DHT22;3161;48.794;9.784;2022-08-14T00:31:20;17.70;93.00
6256;DHT22;3161;48.794;9.784;2022-08-14T00:33:48;17.70;92.80
6256;DHT22;3161;48.794;9.784;2022-08-14T00:36:16;17.70;93.40
6256;DHT22;3161;48.794;9.784;2022-08-14T00:38:43;17.60;93.30
6256;DHT22;3161;48.794;9.784;2022-08-14T00:41:11;17.60;93.10
6256;DHT22;3161;48.794;9.784;2022-08-14T00:43:38;17.60;93.80
6256;DHT22;3161;48.794;9.784;2022-08-14T00:46:08;17.50;94.40
6256;DHT22;3161;48.794;9.784;2022-08-14T00:48:37;17.50;94.00
6256;DHT22;3161;48.794;9.784;2022-08-14T00:51:07;17.50;94.20
6256;DHT22;3161;48.794;9.784;2022-08-14T00:53:37;17.50;94.10
6256;DHT22;3161;48.794;9.784;2022-08-14T00:56:06;17.40;94.30
6256;DHT22;3161;48.794;9.784;2022-08-14T00:58:35;17.40;94.10
6256;DHT22;3161;48.794;9.784;2022-08-14T01:01:08;17.30;94.90
6256;DHT22;3161;48.794;9.784;2022-08-14T01:03:37;17.30;95.00
6256;DHT22;3161;48.794;9.784;2022-08-14T01:06:08;17.30;95.80
6256;DHT22;3161;48.794;9.784;2022-08-14T01:08:37;17.20;95.50
6256;DHT22;3161;48.794;9.784;2022-08-14T01:11:05;17.20;95.80
6256;DHT22;3161;48.794;9.784;2022-08-14T01:13:38;17.20;95.90
6256;DHT22;3161;48.794;9.784;2022-08-14T01:16:09;17.20;95.70
6256;DHT22;3161;48.794;9.784;2022-08-14T01:18:37;17.10;96.40
6256;DHT22;3161;48.794;9.784;2022-08-14T01:21:34;17.10;97.20
6256;DHT22;3161;48.794;9.784;2022-08-14T01:24:03;17.10;97.10
6256;DHT22;3161;48.794;9.784;2022-08-14T01:26:34;17.10;97.00
6256;DHT22;3161;48.794;9.784;2022-08-14T01:29:04;17.00;97.00
6256;DHT22;3161;48.794;9.784;2022-08-14T01:31:35;17.00;97.80
6256;DHT22;3161;48.794;9.784;2022-08-14T01:34:10;16.90;97.80
6256;DHT22;3161;48.794;9.784;2022-08-14T01:36:38;16.90;98.00
6256;DHT22;3161;48.794;9.784;2022-08-14T01:39:12;16.90;98.80
6256;DHT22;3161;48.794;9.784;2022-08-14T01:41:43;16.80;98.90
6256;DHT22;3161;48.794;9.784;2022-08-14T01:44:13;16.80;98.30
6256;DHT22;3161;48.794;9.784;2022-08-14T01:46:42;16.70;98.70
6256;DHT22;3161;48.794;9.784;2022-08-14T01:49:13;16.70;98.90
6256;DHT22;3161;48.794;9.784;2022-08-14T01:51:42;16.60;98.80
6256;DHT22;3161;48.794;9.784;2022-08-14T01:54:15;16.60;99.90
6256;DHT22;3161;48.794;9.784;2022-08-14T01:56:41;16.60;99.90
6256;DHT22;3161;48.794;9.784;2022-08-14T02:01:47;16.50;99.90
6256;DHT22;3161;48.794;9.784;2022-08-14T02:04:20;16.40;99.90
6256;DHT22;3161;48.794;9.784;2022-08-14T02:06:50;16.40;99.90
6256;DHT22;3161;48.794;9.784;2022-08-14T02:09:19;16.40;99.90
6256;DHT22;3161;48.794;9.784;2022-08-14T02:11:52;16.30;99.90
6256;DHT22;3161;48.794;9.784;2022-08-14T02:14:16;16.30;99.90
6256;DHT22;3161;48.794;9.784;2022-08-14T02:16:47;16.30;99.90
6256;DHT22;3161;48.794;9.784;2022-08-14T02:19:19;16.30;99.90
6256;DHT22;3161;48.794;9.784;2022-08-14T02:21:49;16.20;99.90
6256;DHT22;3161;48.794;9.784;2022-08-14T02:24:18;16.20;99.90
6256;DHT22;3161;48.794;9.784;2022-08-14T02:26:46;16.20;99.90
6256;DHT22;3161;48.794;9.784;2022-08-14T02:29:20;16.10;99.90
6256;DHT22;3161;48.794;9.784;2022-08-14T02:31:50;16.10;99.90
6256;DHT22;3161;48.794;9.784;2022-08-14T02:36:50;16.00;99.90
6256;DHT22;3161;48.794;9.784;2022-08-14T02:39:19;16.00;99.90
6256;DHT22;3161;48.794;9.784;2022-08-14T02:41:46;16.00;99.90
6256;DHT22;3161;48.794;9.784;2022-08-14T02:44:16;16.00;99.90
6256;DHT22;3161;48.794;9.784;2022-08-14T02:46:45;15.90;99.90
6256;DHT22;3161;48.794;9.784;2022-08-14T02:49:13;15.90;99.90
6256;DHT22;3161;48.794;9.784;2022-08-14T02:51:41;15.90;99.90
6256;DHT22;3161;48.794;9.784;2022-08-14T02:54:09;15.90;99.90
6256;DHT22;3161;48.794;9.784;2022-08-14T02:56:37;15.90;99.90
6256;DHT22;3161;48.794;9.784;2022-08-14T02:59:06;15.80;99.90
6256;DHT22;3161;48.794;9.784;2022-08-14T03:01:36;15.80;99.90
6256;DHT22;3161;48.794;9.784;2022-08-14T03:04:06;15.80;99.90
6256;DHT22;3161;48.794;9.784;2022-08-14T03:06:36;15.70;99.90
6256;DHT22;3161;48.794;9.784;2022-08-14T03:09:06;15.70;99.90
6256;DHT22;3161;48.794;9.784;2022-08-14T03:11:33;15.70;99.90
6256;DHT22;3161;48.794;9.784;2022-08-14T03:14:01;15.70;99.90
6256;DHT22;3161;48.794;9.784;2022-08-14T03:16:30;15.60;99.90
6256;DHT22;3161;48.794;9.784;2022-08-14T03:19:04;15.60;99.90
6256;DHT22;3161;48.794;9.784;2022-08-14T03:21:35;15.50;99.90
6256;DHT22;3161;48.794;9.784;2022-08-14T03:24:04;15.50;99.90
6256;DHT22;3161;48.794;9.784;2022-08-14T03:26:40;15.50;99.90
6256;DHT22;3161;48.794;9.784;2022-08-14T03:29:08;15.50;99.90
6256;DHT22;3161;48.794;9.784;2022-08-14T03:31:38;15.50;99.90
6256;DHT22;3161;48.794;9.784;2022-08-14T03:34:08;15.50;99.90
6256;DHT22;3161;48.794;9.784;2022-08-14T03:36:38;15.40;99.90
6256;DHT22;3161;48.794;9.784;2022-08-14T03:39:07;15.40;99.90
6256;DHT22;3161;48.794;9.784;2022-08-14T03:41:35;15.40;99.90
6256;DHT22;3161;48.794;9.784;2022-08-14T03:44:05;15.40;99.90
6256;DHT22;3161;48.794;9.784;2022-08-14T03:46:35;15.40;99.90
6256;DHT22;3161;48.794;9.784;2022-08-14T03:49:05;15.30;99.90
6256;DHT22;3161;48.794;9.784;2022-08-14T03:51:33;15.30;99.90
6256;DHT22;3161;48.794;9.784;2022-08-14T03:54:03;15.30;99.90
6256;DHT22;3161;48.794;9.784;2022-08-14T03:56:34;15.30;99.90
6256;DHT22;3161;48.794;9.784;2022-08-14T03:59:06;15.20;99.90
6256;DHT22;3161;48.794;9.784;2022-08-14T04:01:37;15.20;99.90
6256;DHT22;3161;48.794;9.784;2022-08-14T04:04:09;15.20;99.90
6256;DHT22;3161;48.794;9.784;2022-08-14T04:06:38;15.10;99.90
6256;DHT22;3161;48.794;9.784;2022-08-14T04:09:07;15.20;99.90
6256;DHT22;3161;48.794;9.784;2022-08-14T04:11:35;15.10;99.90
6256;DHT22;3161;48.794;9.784;2022-08-14T04:14:04;15.10;99.90
6256;DHT22;3161;48.794;9.784;2022-08-14T04:16:32;15.00;99.90
6256;DHT22;3161;48.794;9.784;2022-08-14T04:19:00;15.00;99.90
6256;DHT22;3161;48.794;9.784;2022-08-14T04:21:30;15.00;99.90
6256;DHT22;3161;48.794;9.784;2022-08-14T04:23:59;15.00;99.90
6256;DHT22;3161;48.794;9.784;2022-08-14T04:26:29;15.00;99.90
6256;DHT22;3161;48.794;9.784;2022-08-14T04:28:57;15.00;99.90
6256;DHT22;3161;48.794;9.784;2022-08-14T04:31:26;15.00;99.90
6256;DHT22;3161;48.794;9.784;2022-08-14T04:33:54;14.90;99.90
6256;DHT22;3161;48.794;9.784;2022-08-14T04:36:22;14.90;99.90
6256;DHT22;3161;48.794;9.784;2022-08-14T04:38:49;14.90;99.90
6256;DHT22;3161;48.794;9.784;2022-08-14T04:41:34;14.90;99.90
6256;DHT22;3161;48.794;9.784;2022-08-14T04:44:20;14.90;99.90
6256;DHT22;3161;48.794;9.784;2022-08-14T04:46:48;14.90;99.90
6256;DHT22;3161;48.794;9.784;2022-08-14T04:49:34;14.90;99.90
6256;DHT22;3161;48.794;9.784;2022-08-14T04:52:02;14.80;99.90
6256;DHT22;3161;48.794;9.784;2022-08-14T04:54:33;14.90;99.90
6256;DHT22;3161;48.794;9.784;2022-08-14T04:57:00;14.90;99.90
6256;DHT22;3161;48.794;9.784;2022-08-14T04:59:28;14.90;99.90
6256;DHT22;3161;48.794;9.784;2022-08-14T05:01:55;14.90;99.90
6256;DHT22;3161;48.794;9.784;2022-08-14T05:04:23;15.00;99.90
6256;DHT22;3161;48.794;9.784;2022-08-14T05:06:52;15.00;99.90
6256;DHT22;3161;48.794;9.784;2022-08-14T05:09:22;15.00;99.90
6256;DHT22;3161;48.794;9.784;2022-08-14T05:11:50;15.00;99.90
6256;DHT22;3161;48.794;9.784;2022-08-14T05:14:19;15.00;99.90
6256;DHT22;3161;48.794;9.784;2022-08-14T05:16:48;15.10;99.90
6256;DHT22;3161;48.794;9.784;2022-08-14T05:19:15;15.10;99.90
6256;DHT22;3161;48.794;9.784;2022-08-14T05:21:43;15.20;99.90
6256;DHT22;3161;48.794;9.784;2022-08-14T05:24:10;15.30;99.90
6256;DHT22;3161;48.794;9.784;2022-08-14T05:26:38;15.30;99.90
6256;DHT22;3161;48.794;9.784;2022-08-14T05:29:07;15.40;99.90
6256;DHT22;3161;48.794;9.784;2022-08-14T05:31:35;15.50;99.90
6256;DHT22;3161;48.794;9.784;2022-08-14T05:34:09;15.50;99.90
6256;DHT22;3161;48.794;9.784;2022-08-14T05:36:35;15.70;99.90
6256;DHT22;3161;48.794;9.784;2022-08-14T05:39:04;15.80;99.90
6256;DHT22;3161;48.794;9.784;2022-08-14T05:41:32;15.80;99.90
6256;DHT22;3161;48.794;9.784;2022-08-14T05:44:00;16.00;99.90
6256;DHT22;3161;48.794;9.784;2022-08-14T05:46:28;16.00;99.90
6256;DHT22;3161;48.794;9.784;2022-08-14T05:48:57;16.10;99.90
6256;DHT22;3161;48.794;9.784;2022-08-14T05:51:26;16.30;99.90
6256;DHT22;3161;48.794;9.784;2022-08-14T05:53:54;16.40;99.90
6256;DHT22;3161;48.794;9.784;2022-08-14T05:56:23;16.50;99.90
6256;DHT22;3161;48.794;9.784;2022-08-14T05:58:52;16.70;99.90
6256;DHT22;3161;48.794;9.784;2022-08-14T06:01:20;16.80;99.90
6256;DHT22;3161;48.794;9.784;2022-08-14T06:03:48;17.00;99.90
6256;DHT22;3161;48.794;9.784;2022-08-14T06:06:17;17.10;99.90
6256;DHT22;3161;48.794;9.784;2022-08-14T06:08:44;17.20;99.90
6256;DHT22;3161;48.794;9.784;2022-08-14T06:11:12;17.40;99.90
6256;DHT22;3161;48.794;9.784;2022-08-14T06:13:42;17.50;99.90
6256;DHT22;3161;48.794;9.784;2022-08-14T06:16:10;17.70;99.90
6256;DHT22;3161;48.794;9.784;2022-08-14T06:18:37;17.80;99.90
6256;DHT22;3161;48.794;9.784;2022-08-14T06:21:06;18.00;99.90
6256;DHT22;3161;48.794;9.784;2022-08-14T06:23:33;18.10;99.90
6256;DHT22;3161;48.794;9.784;2022-08-14T06:26:01;18.30;99.90
6256;DHT22;3161;48.794;9.784;2022-08-14T06:28:28;18.50;99.90
6256;DHT22;3161;48.794;9.784;2022-08-14T06:30:56;18.60;99.90
6256;DHT22;3161;48.794;9.784;2022-08-14T06:33:24;18.70;99.90
6256;DHT22;3161;48.794;9.784;2022-08-14T06:35:51;18.80;99.90
6256;DHT22;3161;48.794;9.784;2022-08-14T06:38:21;19.00;99.90
6256;DHT22;3161;48.794;9.784;2022-08-14T06:40:50;19.10;99.40
6256;DHT22;3161;48.794;9.784;2022-08-14T06:43:18;19.30;99.10
6256;DHT22;3161;48.794;9.784;2022-08-14T06:45:47;19.50;98.70
6256;DHT22;3161;48.794;9.784;2022-08-14T06:48:21;19.60;98.50
6256;DHT22;3161;48.794;9.784;2022-08-14T06:50:50;19.80;98.00
6256;DHT22;3161;48.794;9.784;2022-08-14T06:53:19;20.00;97.60
6256;DHT22;3161;48.794;9.784;2022-08-14T06:55:47;20.20;96.80
6256;DHT22;3161;48.794;9.784;2022-08-14T06:58:16;20.40;96.80
6256;DHT22;3161;48.794;9.784;2022-08-14T07:00:45;20.70;96.90
6256;DHT22;3161;48.794;9.784;2022-08-14T07:03:31;20.90;95.80
6256;DHT22;3161;48.794;9.784;2022-08-14T07:06:18;21.10;95.00
6256;DHT22;3161;48.794;9.784;2022-08-14T07:08:46;21.40;94.30
6256;DHT22;3161;48.794;9.784;2022-08-14T07:11:14;21.60;94.00
6256;DHT22;3161;48.794;9.784;2022-08-14T07:13:43;22.00;93.60
6256;DHT22;3161;48.794;9.784;2022-08-14T07:16:10;22.50;93.10
6256;DHT22;3161;48.794;9.784;2022-08-14T07:18:39;23.40;92.00
6256;DHT22;3161;48.794;9.784;2022-08-14T07:21:07;24.80;89.20
6256;DHT22;3161;48.794;9.784;2022-08-14T07:23:35;26.40;82.80
6256;DHT22;3161;48.794;9.784;2022-08-14T07:26:04;27.90;73.90
6256;DHT22;3161;48.794;9.784;2022-08-14T07:28:34;29.10;69.30
6256;DHT22;3161;48.794;9.784;2022-08-14T07:31:05;29.80;66.30
6256;DHT22;3161;48.794;9.784;2022-08-14T07:33:41;30.30;63.40
6256;DHT22;3161;48.794;9.784;2022-08-14T07:36:11;30.80;60.60
6256;DHT22;3161;48.794;9.784;2022-08-14T07:38:40;31.00;59.00
6256;DHT22;3161;48.794;9.784;2022-08-14T07:41:09;31.40;58.20
6256;DHT22;3161;48.794;9.784;2022-08-14T07:43:37;31.70;57.80
6256;DHT22;3161;48.794;9.784;2022-08-14T07:46:05;32.20;56.10
6256;DHT22;3161;48.794;9.784;2022-08-14T07:48:38;32.80;54.50
6256;DHT22;3161;48.794;9.784;2022-08-14T07:51:06;33.20;53.90
6256;DHT22;3161;48.794;9.784;2022-08-14T07:53:34;33.60;51.60
6256;DHT22;3161;48.794;9.784;2022-08-14T07:56:02;33.70;51.00
6256;DHT22;3161;48.794;9.784;2022-08-14T07:58:30;33.90;50.10
6256;DHT22;3161;48.794;9.784;2022-08-14T08:00:58;34.10;51.40
6256;DHT22;3161;48.794;9.784;2022-08-14T08:03:28;34.40;48.90
6256;DHT22;3161;48.794;9.784;2022-08-14T08:05:58;34.70;47.10
6256;DHT22;3161;48.794;9.784;2022-08-14T08:08:28;34.80;46.60
6256;DHT22;3161;48.794;9.784;2022-08-14T08:10:56;34.90;47.30
6256;DHT22;3161;48.794;9.784;2022-08-14T08:13:25;34.80;46.30
6256;DHT22;3161;48.794;9.784;2022-08-14T08:15:55;34.50;46.50
6256;DHT22;3161;48.794;9.784;2022-08-14T08:18:23;34.40;46.40
6256;DHT22;3161;48.794;9.784;2022-08-14T08:20:53;34.00;45.90
6256;DHT22;3161;48.794;9.784;2022-08-14T08:23:22;33.60;47.30
6256;DHT22;3161;48.794;9.784;2022-08-14T08:25:51;33.30;47.60
6256;DHT22;3161;48.794;9.784;2022-08-14T08:28:23;33.20;47.60
6256;DHT22;3161;48.794;9.784;2022-08-14T08:30:55;33.20;45.50
6256;DHT22;3161;48.794;9.784;2022-08-14T08:33:25;33.20;45.70
6256;DHT22;3161;48.794;9.784;2022-08-14T08:35:59;33.30;45.20
6256;DHT22;3161;48.794;9.784;2022-08-14T08:38:24;33.70;44.20
6256;DHT22;3161;48.794;9.784;2022-08-14T08:40:54;34.00;43.20
6256;DHT22;3161;48.794;9.784;2022-08-14T08:43:25;34.10;42.80
6256;DHT22;3161;48.794;9.784;2022-08-14T08:46:11;34.30;43.50
6256;DHT22;3161;48.794;9.784;2022-08-14T08:48:46;34.40;43.00
6256;DHT22;3161;48.794;9.784;2022-08-14T08:51:31;34.40;39.40
6256;DHT22;3161;48.794;9.784;2022-08-14T08:54:15;34.30;39.10
6256;DHT22;3161;48.794;9.784;2022-08-14T08:56:46;34.20;40.20
6256;DHT22;3161;48.794;9.784;2022-08-14T08:59:27;34.20;40.60
6256;DHT22;3161;48.794;9.784;2022-08-14T09:01:58;34.40;41.10
6256;DHT22;3161;48.794;9.784;2022-08-14T09:04:28;34.70;41.30
6256;DHT22;3161;48.794;9.784;2022-08-14T09:06:56;34.90;42.50
6256;DHT22;3161;48.794;9.784;2022-08-14T09:09:31;34.80;38.70
6256;DHT22;3161;48.794;9.784;2022-08-14T09:12:00;34.90;41.80
6256;DHT22;3161;48.794;9.784;2022-08-14T09:14:30;34.90;39.50
6256;DHT22;3161;48.794;9.784;2022-08-14T09:17:00;34.40;39.70
6256;DHT22;3161;48.794;9.784;2022-08-14T09:19:27;33.90;42.20
6256;DHT22;3161;48.794;9.784;2022-08-14T09:21:55;33.20;41.20
6256;DHT22;3161;48.794;9.784;2022-08-14T09:24:23;32.50;41.70
6256;DHT22;3161;48.794;9.784;2022-08-14T09:26:51;31.90;41.80
6256;DHT22;3161;48.794;9.784;2022-08-14T09:29:19;31.70;45.50
6256;DHT22;3161;48.794;9.784;2022-08-14T09:31:52;31.40;42.70
6256;DHT22;3161;48.794;9.784;2022-08-14T09:34:29;31.10;43.50
6256;DHT22;3161;48.794;9.784;2022-08-14T09:37:15;30.80;46.60
6256;DHT22;3161;48.794;9.784;2022-08-14T09:39:55;30.80;46.20
6256;DHT22;3161;48.794;9.784;2022-08-14T09:42:31;30.80;45.90
6256;DHT22;3161;48.794;9.784;2022-08-14T09:47:53;30.90;46.00
6256;DHT22;3161;48.794;9.784;2022-08-14T09:50:24;31.00;47.80
6256;DHT22;3161;48.794;9.784;2022-08-14T09:52:55;31.10;45.70
6256;DHT22;3161;48.794;9.784;2022-08-14T09:55:25;31.00;46.40
6256;DHT22;3161;48.794;9.784;2022-08-14T09:58:05;31.00;44.70
6256;DHT22;3161;48.794;9.784;2022-08-14T10:00:35;31.00;46.00
6256;DHT22;3161;48.794;9.784;2022-08-14T10:02:55;31.10;46.30
6256;DHT22;3161;48.794;9.784;2022-08-14T10:05:30;31.10;44.30
6256;DHT22;3161;48.794;9.784;2022-08-14T10:08:02;31.10;44.70
6256;DHT22;3161;48.794;9.784;2022-08-14T10:10:35;31.10;45.40
6256;DHT22;3161;48.794;9.784;2022-08-14T10:13:18;31.20;45.20
6256;DHT22;3161;48.794;9.784;2022-08-14T10:15:43;31.20;45.80
6256;DHT22;3161;48.794;9.784;2022-08-14T10:18:13;31.30;46.40
6256;DHT22;3161;48.794;9.784;2022-08-14T10:20:56;31.40;45.50
6256;DHT22;3161;48.794;9.784;2022-08-14T10:23:37;31.50;46.20
6256;DHT22;3161;48.794;9.784;2022-08-14T10:26:02;31.50;45.30
6256;DHT22;3161;48.794;9.784;2022-08-14T10:28:37;31.50;44.10
6256;DHT22;3161;48.794;9.784;2022-08-14T10:31:24;31.50;42.50
6256;DHT22;3161;48.794;9.784;2022-08-14T10:34:05;31.40;44.50
6256;DHT22;3161;48.794;9.784;2022-08-14T10:36:35;31.20;44.60
6256;DHT22;3161;48.794;9.784;2022-08-14T10:39:15;31.10;45.00
6256;DHT22;3161;48.794;9.784;2022-08-14T10:41:44;31.00;44.20
6256;DHT22;3161;48.794;9.784;2022-08-14T10:44:14;31.00;44.40
6256;DHT22;3161;48.794;9.784;2022-08-14T10:46:50;31.00;44.00
6256;DHT22;3161;48.794;9.784;2022-08-14T10:49:17;30.90;44.80
6256;DHT22;3161;48.794;9.784;2022-08-14T10:52:08;31.00;46.10
6256;DHT22;3161;48.794;9.784;2022-08-14T10:54:40;31.10;44.10
6256;DHT22;3161;48.794;9.784;2022-08-14T10:57:26;31.00;44.00
6256;DHT22;3161;48.794;9.784;2022-08-14T10:59:59;31.00;44.30
6256;DHT22;3161;48.794;9.784;2022-08-14T11:02:30;30.90;43.30
6256;DHT22;3161;48.794;9.784;2022-08-14T11:05:15;30.80;43.70
6256;DHT22;3161;48.794;9.784;2022-08-14T11:07:58;30.80;43.60
6256;DHT22;3161;48.794;9.784;2022-08-14T11:10:42;30.80;43.90
6256;DHT22;3161;48.794;9.784;2022-08-14T11:13:09;30.90;44.40
6256;DHT22;3161;48.794;9.784;2022-08-14T11:15:37;30.90;43.70
6256;DHT22;3161;48.794;9.784;2022-08-14T11:18:05;31.00;44.20
6256;DHT22;3161;48.794;9.784;2022-08-14T11:20:32;31.10;44.60
6256;DHT22;3161;48.794;9.784;2022-08-14T11:23:00;31.20;42.40
6256;DHT22;3161;48.794;9.784;2022-08-14T11:25:29;31.20;43.20
6256;DHT22;3161;48.794;9.784;2022-08-14T11:28:00;31.20;44.50
6256;DHT22;3161;48.794;9.784;2022-08-14T11:30:29;31.20;44.90
6256;DHT22;3161;48.794;9.784;2022-08-14T11:33:00;31.20;44.50
6256;DHT22;3161;48.794;9.784;2022-08-14T11:35:29;31.30;43.20
6256;DHT22;3161;48.794;9.784;2022-08-14T11:37:58;31.40;43.00
6256;DHT22;3161;48.794;9.784;2022-08-14T11:40:29;31.30;43.60
6256;DHT22;3161;48.794;9.784;2022-08-14T11:42:57;31.20;42.30
6256;DHT22;3161;48.794;9.784;2022-08-14T11:45:29;31.20;42.90
6256;DHT22;3161;48.794;9.784;2022-08-14T11:48:12;31.30;44.70
6256;DHT22;3161;48.794;9.784;2022-08-14T11:50:32;31.40;43.40
6256;DHT22;3161;48.794;9.784;2022-08-14T11:53:00;31.50;43.00
6256;DHT22;3161;48.794;9.784;2022-08-14T11:55:33;31.50;43.50
6256;DHT22;3161;48.794;9.784;2022-08-14T11:58:05;31.40;42.50
6256;DHT22;3161;48.794;9.784;2022-08-14T12:00:44;31.50;42.70
6256;DHT22;3161;48.794;9.784;2022-08-14T12:03:03;31.60;43.80
6256;DHT22;3161;48.794;9.784;2022-08-14T12:05:39;31.70;42.80
6256;DHT22;3161;48.794;9.784;2022-08-14T12:08:08;31.70;41.50
6256;DHT22;3161;48.794;9.784;2022-08-14T12:10:39;31.90;41.90
6256;DHT22;3161;48.794;9.784;2022-08-14T12:13:14;31.90;41.70
6256;DHT22;3161;48.794;9.784;2022-08-14T12:15:43;32.00;41.20
6256;DHT22;3161;48.794;9.784;2022-08-14T12:18:12;32.10;42.00
6256;DHT22;3161;48.794;9.784;2022-08-14T12:20:41;32.00;41.70
6256;DHT22;3161;48.794;9.784;2022-08-14T12:23:24;32.00;43.00
6256;DHT22;3161;48.794;9.784;2022-08-14T12:26:02;32.00;43.60
6256;DHT22;3161;48.794;9.784;2022-08-14T12:28:30;32.20;41.40
6256;DHT22;3161;48.794;9.784;2022-08-14T12:30:58;32.50;41.30
6256;DHT22;3161;48.794;9.784;2022-08-14T12:33:28;32.80;43.30
6256;DHT22;3161;48.794;9.784;2022-08-14T12:36:00;33.10;42.60
6256;DHT22;3161;48.794;9.784;2022-08-14T12:38:36;33.20;42.00
6256;DHT22;3161;48.794;9.784;2022-08-14T12:41:12;33.20;40.40
6256;DHT22;3161;48.794;9.784;2022-08-14T12:46:33;33.30;40.80
6256;DHT22;3161;48.794;9.784;2022-08-14T12:48:53;33.30;40.80
6256;DHT22;3161;48.794;9.784;2022-08-14T12:51:24;33.30;41.10
6256;DHT22;3161;48.794;9.784;2022-08-14T12:53:54;33.40;38.60
6256;DHT22;3161;48.794;9.784;2022-08-14T12:56:23;33.50;40.20
6256;DHT22;3161;48.794;9.784;2022-08-14T12:58:55;33.60;38.10
6256;DHT22;3161;48.794;9.784;2022-08-14T13:01:25;33.50;38.20
6256;DHT22;3161;48.794;9.784;2022-08-14T13:06:40;33.30;40.40
6256;DHT22;3161;48.794;9.784;2022-08-14T13:09:12;33.20;40.80
6256;DHT22;3161;48.794;9.784;2022-08-14T13:12:05;33.40;40.10
6256;DHT22;3161;48.794;9.784;2022-08-14T13:14:31;34.00;40.90
6256;DHT22;3161;48.794;9.784;2022-08-14T13:17:02;34.80;39.50
6256;DHT22;3161;48.794;9.784;2022-08-14T13:19:30;35.70;39.10
6256;DHT22;3161;48.794;9.784;2022-08-14T13:21:59;37.30;37.00
6256;DHT22;3161;48.794;9.784;2022-08-14T13:24:27;39.10;34.00
6256;DHT22;3161;48.794;9.784;2022-08-14T13:26:55;40.70;31.30
6256;DHT22;3161;48.794;9.784;2022-08-14T13:29:27;41.90;30.00
6256;DHT22;3161;48.794;9.784;2022-08-14T13:31:55;42.50;28.40
6256;DHT22;3161;48.794;9.784;2022-08-14T13:34:26;42.60;28.60
6256;DHT22;3161;48.794;9.784;2022-08-14T13:36:54;42.80;29.20
6256;DHT22;3161;48.794;9.784;2022-08-14T13:39:24;44.20;26.80
6256;DHT22;3161;48.794;9.784;2022-08-14T13:41:52;46.10;26.60
6256;DHT22;3161;48.794;9.784;2022-08-14T13:44:20;48.00;24.60
6256;DHT22;3161;48.794;9.784;2022-08-14T13:46:48;48.70;21.80
6256;DHT22;3161;48.794;9.784;2022-08-14T13:49:16;48.80;22.20
6256;DHT22;3161;48.794;9.784;2022-08-14T13:51:46;49.10;21.60
6256;DHT22;3161;48.794;9.784;2022-08-14T13:54:18;49.20;20.30
6256;DHT22;3161;48.794;9.784;2022-08-14T13:56:47;49.60;21.60
6256;DHT22;3161;48.794;9.784;2022-08-14T13:59:15;50.60;21.70
6256;DHT22;3161;48.794;9.784;2022-08-14T14:01:43;51.50;20.20
6256;DHT22;3161;48.794;9.784;2022-08-14T14:04:17;52.00;20.40
6256;DHT22;3161;48.794;9.784;2022-08-14T14:06:45;52.50;20.30
6256;DHT22;3161;48.794;9.784;2022-08-14T14:09:14;52.70;19.00
6256;DHT22;3161;48.794;9.784;2022-08-14T14:11:43;52.80;19.90
6256;DHT22;3161;48.794;9.784;2022-08-14T14:14:12;53.30;19.20
6256;DHT22;3161;48.794;9.784;2022-08-14T14:16:40;53.50;19.70
6256;DHT22;3161;48.794;9.784;2022-08-14T14:19:08;54.00;18.70
6256;DHT22;3161;48.794;9.784;2022-08-14T14:21:36;53.20;18.30
6256;DHT22;3161;48.794;9.784;2022-08-14T14:24:05;53.00;19.10
6256;DHT22;3161;48.794;9.784;2022-08-14T14:26:33;52.70;18.70
6256;DHT22;3161;48.794;9.784;2022-08-14T14:29:01;52.80;19.40
6256;DHT22;3161;48.794;9.784;2022-08-14T14:31:29;53.10;19.10
6256;DHT22;3161;48.794;9.784;2022-08-14T14:34:02;52.50;18.60
6256;DHT22;3161;48.794;9.784;2022-08-14T14:36:30;50.90;20.30
6256;DHT22;3161;48.794;9.784;2022-08-14T14:39:00;48.60;20.40
6256;DHT22;3161;48.794;9.784;2022-08-14T14:41:30;46.20;22.50
6256;DHT22;3161;48.794;9.784;2022-08-14T14:43:59;44.10;22.90
6256;DHT22;3161;48.794;9.784;2022-08-14T14:46:32;42.30;23.60
6256;DHT22;3161;48.794;9.784;2022-08-14T14:49:00;40.80;25.60
6256;DHT22;3161;48.794;9.784;2022-08-14T14:51:28;39.50;25.70
6256;DHT22;3161;48.794;9.784;2022-08-14T14:53:56;38.30;26.90
6256;DHT22;3161;48.794;9.784;2022-08-14T14:56:24;37.60;27.20
6256;DHT22;3161;48.794;9.784;2022-08-14T14:58:53;37.00;28.00
6256;DHT22;3161;48.794;9.784;2022-08-14T15:01:20;36.40;28.00
6256;DHT22;3161;48.794;9.784;2022-08-14T15:03:50;35.80;28.00
6256;DHT22;3161;48.794;9.784;2022-08-14T15:06:22;35.40;28.30
6256;DHT22;3161;48.794;9.784;2022-08-14T15:08:50;34.90;29.30
6256;DHT22;3161;48.794;9.784;2022-08-14T15:11:19;34.70;31.40
6256;DHT22;3161;48.794;9.784;2022-08-14T15:13:46;34.50;29.80
6256;DHT22;3161;48.794;9.784;2022-08-14T15:16:14;34.30;30.00
6256;DHT22;3161;48.794;9.784;2022-08-14T15:18:42;34.00;30.50
6256;DHT22;3161;48.794;9.784;2022-08-14T15:21:11;33.60;31.40
6256;DHT22;3161;48.794;9.784;2022-08-14T15:23:39;33.40;29.90
6256;DHT22;3161;48.794;9.784;2022-08-14T15:26:07;33.30;32.20
6256;DHT22;3161;48.794;9.784;2022-08-14T15:28:35;33.20;31.70
6256;DHT22;3161;48.794;9.784;2022-08-14T15:31:03;33.20;32.00
6256;DHT22;3161;48.794;9.784;2022-08-14T15:33:31;33.10;31.80
6256;DHT22;3161;48.794;9.784;2022-08-14T15:36:17;33.00;32.70
6256;DHT22;3161;48.794;9.784;2022-08-14T15:38:45;32.90;32.40
6256;DHT22;3161;48.794;9.784;2022-08-14T15:41:13;32.80;32.00
6256;DHT22;3161;48.794;9.784;2022-08-14T15:43:40;32.70;32.00
6256;DHT22;3161;48.794;9.784;2022-08-14T15:46:08;32.60;32.20
6256;DHT22;3161;48.794;9.784;2022-08-14T15:48:36;32.40;31.00
6256;DHT22;3161;48.794;9.784;2022-08-14T15:51:04;32.30;31.20
6256;DHT22;3161;48.794;9.784;2022-08-14T15:53:31;32.20;30.90
6256;DHT22;3161;48.794;9.784;2022-08-14T15:55:59;32.20;31.20
6256;DHT22;3161;48.794;9.784;2022-08-14T15:58:27;32.10;31.70
6256;DHT22;3161;48.794;9.784;2022-08-14T16:00:55;32.00;31.40
6256;DHT22;3161;48.794;9.784;2022-08-14T16:03:40;32.00;31.00
6256;DHT22;3161;48.794;9.784;2022-08-14T16:06:11;32.00;31.40
6256;DHT22;3161;48.794;9.784;2022-08-14T16:08:39;31.90;30.90
6256;DHT22;3161;48.794;9.784;2022-08-14T16:11:08;31.90;32.10
6256;DHT22;3161;48.794;9.784;2022-08-14T16:13:37;31.80;31.80
6256;DHT22;3161;48.794;9.784;2022-08-14T16:16:08;31.80;31.40
6256;DHT22;3161;48.794;9.784;2022-08-14T16:18:37;31.80;32.50
6256;DHT22;3161;48.794;9.784;2022-08-14T16:21:10;31.80;31.60
6256;DHT22;3161;48.794;9.784;2022-08-14T16:23:38;31.80;31.30
6256;DHT22;3161;48.794;9.784;2022-08-14T16:26:14;31.70;31.50
6256;DHT22;3161;48.794;9.784;2022-08-14T16:28:39;31.60;32.20
6256;DHT22;3161;48.794;9.784;2022-08-14T16:31:06;31.60;32.00
6256;DHT22;3161;48.794;9.784;2022-08-14T16:33:34;31.60;32.20
6256;DHT22;3161;48.794;9.784;2022-08-14T16:36:03;31.60;32.50